createdAt,value
2017-01-23T00:00:53.674Z,-157.78
2017-01-23T00:01:53.722Z,-158.68
2017-01-23T00:02:53.652Z,-158.38
2017-01-23T00:03:53.642Z,-161.18
2017-01-23T00:04:53.789Z,-162.05
2017-01-23T00:05:53.631Z,-165.64
2017-01-23T00:06:53.636Z,-166.41
2017-01-23T00:07:53.731Z,-168.17
2017-01-23T00:08:53.650Z,-170.02
2017-01-23T00:09:53.760Z,-170.59
2017-01-23T00:10:53.694Z,-173.88
2017-01-23T00:11:53.656Z,-174.73
2017-01-23T00:12:53.645Z,-176.05
2017-01-23T00:13:53.671Z,-176.31
2017-01-23T00:14:53.648Z,-178.59
2017-01-23T00:15:53.649Z,-179.98
2017-01-23T00:16:53.655Z,-181.53
2017-01-23T00:17:53.779Z,-183.78
2017-01-23T00:18:53.636Z,-184.84
2017-01-23T00:19:53.642Z,-187.29
2017-01-23T00:20:53.650Z,-190.57
2017-01-23T00:21:53.653Z,-190.81
2017-01-23T00:22:53.649Z,-193.35
2017-01-23T00:23:53.644Z,-194.1
2017-01-23T00:24:53.675Z,-195.52
2017-01-23T00:25:53.648Z,-197.81
2017-01-23T00:26:53.649Z,-197.8
2017-01-23T00:27:53.653Z,-198.6
2017-01-23T00:28:53.644Z,-199.97
2017-01-23T00:29:53.646Z,-200.62
2017-01-23T00:30:53.640Z,-201.67
2017-01-23T00:31:53.656Z,-202.74
2017-01-23T00:32:53.658Z,-203.62
2017-01-23T00:33:53.658Z,-205.52
2017-01-23T00:34:53.645Z,-208.04
2017-01-23T00:35:53.651Z,-209.98
2017-01-23T00:36:53.655Z,-212.52
2017-01-23T00:37:53.657Z,-215.33
2017-01-23T00:38:53.655Z,-214.71
2017-01-23T00:39:53.680Z,-216.44
2017-01-23T00:40:53.759Z,-218.41
2017-01-23T00:41:53.651Z,-220.86
2017-01-23T00:42:53.653Z,-223.23
2017-01-23T00:43:53.740Z,-226.07
2017-01-23T00:44:53.667Z,-227.15
2017-01-23T00:45:53.652Z,-228.84
2017-01-23T00:46:53.651Z,-228.59
2017-01-23T00:47:53.663Z,-231.16
2017-01-23T00:48:53.785Z,-231.07
2017-01-23T00:49:53.760Z,-233.11
2017-01-23T00:50:53.700Z,-234.5
2017-01-23T00:51:53.675Z,-235.94
2017-01-23T00:52:53.659Z,-236.24
2017-01-23T00:53:53.698Z,-236.22
2017-01-23T00:54:53.655Z,-236.84
2017-01-23T00:55:53.656Z,-237.9
2017-01-23T00:56:53.665Z,-237.86
2017-01-23T00:57:53.660Z,-237.04
2017-01-23T00:58:53.654Z,-237.84
2017-01-23T00:59:53.664Z,-237.54
2017-01-23T01:00:53.669Z,-237.78
2017-01-23T01:01:53.661Z,-238.9
2017-01-23T01:02:53.666Z,-241.45
2017-01-23T01:03:53.677Z,-243.37
2017-01-23T01:04:53.663Z,-244.2
2017-01-23T01:05:53.670Z,-247.03
2017-01-23T01:06:53.675Z,-248.36
2017-01-23T01:07:53.665Z,-248.93
2017-01-23T01:08:53.667Z,-251.71
2017-01-23T01:09:53.731Z,-254
2017-01-23T01:10:53.670Z,-254.03
2017-01-23T01:11:53.669Z,-256.23
2017-01-23T01:12:53.757Z,-259.41
2017-01-23T01:13:53.666Z,-261.67
2017-01-23T01:14:53.664Z,-264.21
2017-01-23T01:15:53.668Z,-267.25
2017-01-23T01:16:53.664Z,-269.52
2017-01-23T01:17:53.669Z,-269.95
2017-01-23T01:18:53.661Z,-273.69
2017-01-23T01:19:53.658Z,-277.07
2017-01-23T01:20:53.677Z,-278.76
2017-01-23T01:21:53.674Z,-279.92
2017-01-23T01:22:53.666Z,-281.03
2017-01-23T01:23:53.668Z,-280.14
2017-01-23T01:24:53.668Z,-279.56
2017-01-23T01:25:53.674Z,-277.52
2017-01-23T01:26:53.681Z,-278.13
2017-01-23T01:27:53.671Z,-278.45
2017-01-23T01:28:53.738Z,-280.63
2017-01-23T01:29:53.670Z,-282.95
2017-01-23T01:30:53.673Z,-286.36
2017-01-23T01:31:53.684Z,-289.21
2017-01-23T01:32:53.675Z,-292.08
2017-01-23T01:33:53.670Z,-295.55
2017-01-23T01:34:53.670Z,-296.08
2017-01-23T01:35:53.678Z,-298.41
2017-01-23T01:36:53.687Z,-300.67
2017-01-23T01:37:53.680Z,-301.81
2017-01-23T01:38:53.676Z,-300.92
2017-01-23T01:39:53.692Z,-301.48
2017-01-23T01:40:53.689Z,-304.11
2017-01-23T01:41:53.703Z,-297.43
2017-01-23T01:42:53.680Z,-292.33
2017-01-23T01:43:53.683Z,-291.77
2017-01-23T01:44:53.683Z,-292.08
2017-01-23T01:45:53.682Z,-291.83
2017-01-23T01:46:53.689Z,-292.13
2017-01-23T01:47:53.687Z,-292.11
2017-01-23T01:48:53.687Z,-290.67
2017-01-23T01:49:53.698Z,-290.69
2017-01-23T01:50:53.682Z,-289.85
2017-01-23T01:51:53.694Z,-289.83
2017-01-23T01:52:53.688Z,-292.45
2017-01-23T01:53:53.787Z,-296.17
2017-01-23T01:54:53.697Z,-299.34
2017-01-23T01:55:53.687Z,-301.85
2017-01-23T01:56:53.693Z,-301.29
2017-01-23T01:57:53.685Z,-300.7
2017-01-23T01:58:53.815Z,-300.05
2017-01-23T01:59:53.693Z,-299.8
2017-01-23T02:00:53.847Z,-300.11
2017-01-23T02:01:53.681Z,-295.82
2017-01-23T02:02:53.690Z,-295.03
2017-01-23T02:03:53.703Z,-294.74
2017-01-23T02:04:53.685Z,-294.45
2017-01-23T02:05:53.690Z,-293.87
2017-01-23T02:06:53.849Z,-295.36
2017-01-23T02:07:53.695Z,-295.92
2017-01-23T02:08:53.696Z,-297.11
2017-01-23T02:09:53.689Z,-295.67
2017-01-23T02:10:53.697Z,-294.85
2017-01-23T02:11:53.731Z,-293.18
2017-01-23T02:12:53.711Z,-292.22
2017-01-23T02:13:53.714Z,-291.62
2017-01-23T02:14:53.702Z,-290.77
2017-01-23T02:15:53.691Z,-290.5
2017-01-23T02:16:53.702Z,-290.85
2017-01-23T02:17:53.696Z,-290.26
2017-01-23T02:18:53.697Z,-288.82
2017-01-23T02:19:53.710Z,-290.02
2017-01-23T02:20:53.698Z,-290.26
2017-01-23T02:21:53.700Z,-291.66
2017-01-23T02:22:53.694Z,-294.56
2017-01-23T02:23:53.697Z,-293.15
2017-01-23T02:24:53.716Z,-293.41
2017-01-23T02:25:53.708Z,-293.42
2017-01-23T02:26:53.706Z,-292.54
2017-01-23T02:27:53.696Z,-292.25
2017-01-23T02:28:53.700Z,-289.97
2017-01-23T02:29:53.704Z,-288.28
2017-01-23T02:30:53.705Z,-287.22
2017-01-23T02:31:53.729Z,-283.49
2017-01-23T02:32:53.716Z,-279.78
2017-01-23T02:33:53.719Z,-278.38
2017-01-23T02:34:53.708Z,-276.9
2017-01-23T02:35:53.702Z,-274.02
2017-01-23T02:36:53.703Z,-272.88
2017-01-23T02:37:53.704Z,-270.01
2017-01-23T02:38:53.727Z,-267.42
2017-01-23T02:39:53.709Z,-263.54
2017-01-23T02:40:53.706Z,-257.59
2017-01-23T02:41:53.720Z,-252.47
2017-01-23T02:42:53.733Z,-250.36
2017-01-23T02:43:53.720Z,-247.86
2017-01-23T02:44:53.708Z,-248.98
2017-01-23T02:45:53.714Z,-248.99
2017-01-23T02:46:53.719Z,-246.97
2017-01-23T02:47:53.712Z,-244.15
2017-01-23T02:48:53.729Z,-241.57
2017-01-23T02:49:53.728Z,-239.32
2017-01-23T02:50:53.735Z,-237.9
2017-01-23T02:51:53.717Z,-235.07
2017-01-23T02:52:53.719Z,-232.85
2017-01-23T02:53:53.711Z,-232.04
2017-01-23T02:54:53.721Z,-227.85
2017-01-23T02:55:53.724Z,-223.32
2017-01-23T02:56:53.721Z,-221.09
2017-01-23T02:57:53.718Z,-218.6
2017-01-23T02:58:53.716Z,-215.8
2017-01-23T02:59:53.722Z,-213.54
2017-01-23T03:00:53.724Z,-209.05
2017-01-23T03:01:53.731Z,-207.11
2017-01-23T03:02:53.731Z,-203.18
2017-01-23T03:03:53.728Z,-198.78
2017-01-23T03:04:53.773Z,-194.37
2017-01-23T03:05:53.720Z,-189.02
2017-01-23T03:06:53.722Z,-182.38
2017-01-23T03:07:53.723Z,-178.49
2017-01-23T03:08:53.723Z,-176.6
2017-01-23T03:09:53.736Z,-173.83
2017-01-23T03:10:53.729Z,-170.8
2017-01-23T03:11:53.753Z,-169.72
2017-01-23T03:12:53.722Z,-165.86
2017-01-23T03:13:53.732Z,-161.75
2017-01-23T03:14:53.732Z,-158.41
2017-01-23T03:15:53.753Z,-155.52
2017-01-23T03:16:53.730Z,-151.39
2017-01-23T03:17:53.731Z,-147.57
2017-01-23T03:18:53.730Z,-145.16
2017-01-23T03:19:53.731Z,-145.36
2017-01-23T03:20:53.735Z,-143.68
2017-01-23T03:21:53.735Z,-144.49
2017-01-23T03:22:53.730Z,-142.3
2017-01-23T03:23:53.737Z,-140.87
2017-01-23T03:24:53.741Z,-139.52
2017-01-23T03:25:53.771Z,-139.59
2017-01-23T03:26:53.735Z,-137.95
2017-01-23T03:27:53.738Z,-135.5
2017-01-23T03:28:53.731Z,-132.22
2017-01-23T03:29:53.758Z,-128.73
2017-01-23T03:30:53.734Z,-126.84
2017-01-23T03:31:53.739Z,-125.04
2017-01-23T03:32:53.749Z,-121.5
2017-01-23T03:33:53.736Z,-117.93
2017-01-23T03:34:53.743Z,-115.34
2017-01-23T03:35:53.744Z,-112.33
2017-01-23T03:36:53.749Z,-109.38
2017-01-23T03:37:53.743Z,-108.37
2017-01-23T03:38:53.736Z,-104.56
2017-01-23T03:39:53.745Z,-102.46
2017-01-23T03:40:53.752Z,-100.65
2017-01-23T03:41:53.750Z,-97.36
2017-01-23T03:42:53.751Z,-96.57
2017-01-23T03:43:53.753Z,-93.37
2017-01-23T03:44:53.747Z,-95.33
2017-01-23T03:45:53.748Z,-89.6
2017-01-23T03:46:53.747Z,-87.73
2017-01-23T03:47:53.751Z,-85.81
2017-01-23T03:48:53.764Z,-82.84
2017-01-23T03:49:53.759Z,-83.19
2017-01-23T03:50:53.743Z,-81.33
2017-01-23T03:51:53.742Z,-81.59
2017-01-23T03:52:53.759Z,-83.53
2017-01-23T03:53:53.751Z,-86.22
2017-01-23T03:54:53.759Z,-89.37
2017-01-23T03:55:53.752Z,-92.86
2017-01-23T03:56:53.756Z,-95.85
2017-01-23T03:57:53.753Z,-99.38
2017-01-23T03:58:53.754Z,-102.05
2017-01-23T03:59:53.763Z,-105.77
2017-01-23T04:00:53.758Z,-110.07
2017-01-23T04:01:53.759Z,-114.43
2017-01-23T04:02:53.757Z,-116.3
2017-01-23T04:03:53.751Z,-115.71
2017-01-23T04:04:53.773Z,-115.46
2017-01-23T04:05:53.768Z,-114.29
2017-01-23T04:06:53.759Z,-113.3
2017-01-23T04:07:53.757Z,-111.4
2017-01-23T04:08:53.768Z,-110.04
2017-01-23T04:09:53.760Z,-107.36
2017-01-23T04:10:53.751Z,-104.06
2017-01-23T04:11:53.770Z,-101.94
2017-01-23T04:12:53.765Z,-98.92
2017-01-23T04:13:53.768Z,-98.4
2017-01-23T04:14:53.764Z,-95.98
2017-01-23T04:15:53.773Z,-92.74
2017-01-23T04:16:53.768Z,-89.71
2017-01-23T04:17:53.777Z,-87.55
2017-01-23T04:18:53.770Z,-83.32
2017-01-23T04:19:53.772Z,-78.85
2017-01-23T04:20:53.772Z,-76.65
2017-01-23T04:21:53.777Z,-74.21
2017-01-23T04:22:53.771Z,-69.36
2017-01-23T04:23:53.773Z,-68.13
2017-01-23T04:24:53.780Z,-66.25
2017-01-23T04:25:53.771Z,-63.12
2017-01-23T04:26:53.784Z,-59.09
2017-01-23T04:27:53.776Z,-56.2
2017-01-23T04:28:53.794Z,-54.91
2017-01-23T04:29:53.776Z,-52
2017-01-23T04:30:53.778Z,-51.48
2017-01-23T04:31:53.789Z,-48.82
2017-01-23T04:32:53.779Z,-47.23
2017-01-23T04:33:53.775Z,-45.14
2017-01-23T04:34:53.777Z,-43.71
2017-01-23T04:35:53.779Z,-47.54
2017-01-23T04:36:53.780Z,-48.21
2017-01-23T04:37:53.781Z,-49.29
2017-01-23T04:38:53.795Z,-48.75
2017-01-23T04:39:53.785Z,-48.77
2017-01-23T04:40:53.782Z,-47.95
2017-01-23T04:41:53.780Z,-47.61
2017-01-23T04:42:53.779Z,-46.55
2017-01-23T04:43:53.785Z,-48.56
2017-01-23T04:44:53.802Z,-49.89
2017-01-23T04:45:53.784Z,-52.99
2017-01-23T04:46:53.791Z,-55.42
2017-01-23T04:47:53.783Z,-56.45
2017-01-23T04:48:53.789Z,-57.8
2017-01-23T04:49:53.792Z,-59.71
2017-01-23T04:50:53.825Z,-60.45
2017-01-23T04:51:53.797Z,-60.49
2017-01-23T04:52:53.790Z,-59.78
2017-01-23T04:53:53.794Z,-58.24
2017-01-23T04:54:53.791Z,-57.48
2017-01-23T04:55:53.796Z,-55.45
2017-01-23T04:56:53.793Z,-52.79
2017-01-23T04:57:53.798Z,-51.22
2017-01-23T04:58:53.793Z,-48.56
2017-01-23T04:59:53.805Z,-45.36
2017-01-23T05:00:53.801Z,-40.33
2017-01-23T05:01:53.812Z,-38.22
2017-01-23T05:02:53.807Z,-32.89
2017-01-23T05:03:53.793Z,-30.75
2017-01-23T05:04:53.799Z,-28.08
2017-01-23T05:05:53.793Z,-25.49
2017-01-23T05:06:53.794Z,-21.81
2017-01-23T05:07:53.793Z,-20.29
2017-01-23T05:08:53.798Z,-17.39
2017-01-23T05:09:53.800Z,-13.96
2017-01-23T05:10:53.792Z,-10.29
2017-01-23T05:11:53.799Z,-7.98
2017-01-23T05:12:53.808Z,-5.63
2017-01-23T05:13:53.795Z,-3.24
2017-01-23T05:14:53.808Z,-0.61
2017-01-23T05:15:53.797Z,0.93
2017-01-23T05:16:53.803Z,2.25
2017-01-23T05:17:53.796Z,-0.76
2017-01-23T05:18:53.804Z,6.58
2017-01-23T05:19:53.808Z,7.34
2017-01-23T05:20:53.816Z,8.11
2017-01-23T05:21:53.811Z,9.14
2017-01-23T05:22:53.802Z,10.97
2017-01-23T05:23:53.809Z,12.52
2017-01-23T05:24:53.802Z,14.85
2017-01-23T05:25:53.808Z,15.35
2017-01-23T05:26:53.816Z,17.4
2017-01-23T05:27:53.821Z,15.77
2017-01-23T05:28:53.808Z,19.73
2017-01-23T05:29:53.832Z,20.78
2017-01-23T05:30:53.816Z,21.54
2017-01-23T05:31:53.817Z,23.37
2017-01-23T05:32:53.813Z,24.33
2017-01-23T05:33:53.812Z,25.96
2017-01-23T05:34:53.816Z,27.01
2017-01-23T05:35:53.814Z,26.71
2017-01-23T05:36:53.812Z,26.47
2017-01-23T05:37:53.818Z,26.24
2017-01-23T05:38:53.817Z,26.51
2017-01-23T05:39:53.815Z,27.31
2017-01-23T05:40:53.816Z,29.15
2017-01-23T05:41:53.814Z,31.55
2017-01-23T05:42:53.820Z,32.84
2017-01-23T05:43:53.814Z,34.4
2017-01-23T05:44:53.823Z,36.95
2017-01-23T05:45:53.817Z,38
2017-01-23T05:46:53.825Z,38.74
2017-01-23T05:47:53.828Z,40.07
2017-01-23T05:48:53.816Z,39.61
2017-01-23T05:49:53.822Z,41.87
2017-01-23T05:50:53.827Z,43.77
2017-01-23T05:51:53.818Z,44.27
2017-01-23T05:52:53.827Z,46.02
2017-01-23T05:53:53.822Z,47.82
2017-01-23T05:54:53.830Z,50.67
2017-01-23T05:55:53.831Z,52.3
2017-01-23T05:56:53.825Z,53.52
2017-01-23T05:57:53.850Z,54.33
2017-01-23T05:58:53.820Z,54.56
2017-01-23T05:59:53.826Z,55.29
2017-01-23T06:00:53.828Z,56.09
2017-01-23T06:01:53.832Z,56.61
2017-01-23T06:02:53.824Z,56.08
2017-01-23T06:03:53.837Z,57.38
2017-01-23T06:04:53.827Z,59.7
2017-01-23T06:05:53.836Z,60.97
2017-01-23T06:06:53.837Z,61.69
2017-01-23T06:07:53.834Z,62.18
2017-01-23T06:08:53.839Z,62.71
2017-01-23T06:09:53.843Z,62.95
2017-01-23T06:10:53.838Z,63.96
2017-01-23T06:11:53.843Z,64.97
2017-01-23T06:12:53.834Z,65.21
2017-01-23T06:13:53.835Z,66.67
2017-01-23T06:14:53.839Z,67.17
2017-01-23T06:15:53.840Z,68.67
2017-01-23T06:16:53.835Z,70.17
2017-01-23T06:17:53.834Z,70.95
2017-01-23T06:18:53.844Z,73.2
2017-01-23T06:19:53.842Z,73.99
2017-01-23T06:20:53.842Z,74.23
2017-01-23T06:21:53.842Z,74.23
2017-01-23T06:22:53.842Z,74.45
2017-01-23T06:23:53.831Z,74.71
2017-01-23T06:24:53.836Z,75.95
2017-01-23T06:25:53.858Z,77.53
2017-01-23T06:26:53.840Z,79.58
2017-01-23T06:27:53.847Z,80.93
2017-01-23T06:28:53.837Z,81.98
2017-01-23T06:29:53.845Z,81.67
2017-01-23T06:30:53.860Z,82.69
2017-01-23T06:31:53.842Z,82.46
2017-01-23T06:32:53.838Z,83.19
2017-01-23T06:33:53.850Z,83.75
2017-01-23T06:34:53.847Z,84.25
2017-01-23T06:35:53.847Z,83.74
2017-01-23T06:36:53.861Z,84.82
2017-01-23T06:37:53.839Z,84.82
2017-01-23T06:38:53.846Z,85.86
2017-01-23T06:39:53.850Z,87.64
2017-01-23T06:40:53.852Z,85.35
2017-01-23T06:41:53.858Z,84.67
2017-01-23T06:42:53.846Z,82.89
2017-01-23T06:43:53.855Z,82.12
2017-01-23T06:44:53.858Z,82.68
2017-01-23T06:45:53.853Z,81.63
2017-01-23T06:46:53.857Z,81.72
2017-01-23T06:47:53.851Z,76.85
2017-01-23T06:48:53.866Z,78.39
2017-01-23T06:49:53.852Z,77.12
2017-01-23T06:50:53.854Z,75.59
2017-01-23T06:51:53.856Z,77.93
2017-01-23T06:52:53.858Z,78.92
2017-01-23T06:53:53.857Z,78.69
2017-01-23T06:54:53.865Z,77.14
2017-01-23T06:55:53.862Z,75.65
2017-01-23T06:56:53.862Z,76.49
2017-01-23T06:57:53.855Z,77.15
2017-01-23T06:58:53.859Z,78.21
2017-01-23T06:59:53.855Z,79.45
2017-01-23T07:00:53.859Z,80.96
2017-01-23T07:01:53.858Z,82.94
2017-01-23T07:02:53.871Z,85.74
2017-01-23T07:03:53.867Z,86.45
2017-01-23T07:04:53.861Z,88.89
2017-01-23T07:05:53.863Z,90.68
2017-01-23T07:06:53.866Z,91.99
2017-01-23T07:07:53.867Z,93.44
2017-01-23T07:08:53.881Z,91.66
2017-01-23T07:09:53.867Z,92.42
2017-01-23T07:10:53.863Z,92.41
2017-01-23T07:11:53.867Z,92.06
2017-01-23T07:12:53.870Z,93.85
2017-01-23T07:13:53.872Z,95.92
2017-01-23T07:14:53.871Z,97.96
2017-01-23T07:15:53.877Z,100.23
2017-01-23T07:16:53.871Z,102.79
2017-01-23T07:17:53.862Z,106.1
2017-01-23T07:18:53.885Z,107.59
2017-01-23T07:19:53.881Z,110.61
2017-01-23T07:20:53.875Z,113.63
2017-01-23T07:21:53.868Z,115.94
2017-01-23T07:22:53.885Z,117.63
2017-01-23T07:23:53.879Z,118.55
2017-01-23T07:24:53.877Z,121.3
2017-01-23T07:25:53.870Z,123.04
2017-01-23T07:26:53.877Z,125.36
2017-01-23T07:27:53.867Z,129.07
2017-01-23T07:28:53.873Z,130.29
2017-01-23T07:29:53.881Z,131.57
2017-01-23T07:30:53.884Z,134.24
2017-01-23T07:31:53.882Z,136.76
2017-01-23T07:32:53.874Z,137.72
2017-01-23T07:33:53.878Z,140.97
2017-01-23T07:34:53.893Z,142.16
2017-01-23T07:35:53.884Z,144.65
2017-01-23T07:36:53.889Z,146.15
2017-01-23T07:37:53.874Z,147.61
2017-01-23T07:38:53.882Z,149.04
2017-01-23T07:39:53.883Z,151.28
2017-01-23T07:40:53.897Z,151.8
2017-01-23T07:41:53.877Z,152.76
2017-01-23T07:42:53.896Z,155.91
2017-01-23T07:43:53.883Z,157.63
2017-01-23T07:44:53.891Z,159.84
2017-01-23T07:45:53.891Z,162.07
2017-01-23T07:46:53.896Z,163.97
2017-01-23T07:47:54.030Z,166.48
2017-01-23T07:48:53.884Z,169.7
2017-01-23T07:49:53.883Z,171.4
2017-01-23T07:50:53.899Z,172.85
2017-01-23T07:51:53.983Z,174.86
2017-01-23T07:52:53.889Z,175.83
2017-01-23T07:53:53.891Z,178.77
2017-01-23T07:54:54.057Z,180.52
2017-01-23T07:55:54.077Z,182.2
2017-01-23T07:56:53.895Z,184.11
2017-01-23T07:57:53.890Z,185.61
2017-01-23T07:58:53.893Z,187.08
2017-01-23T07:59:53.911Z,189
2017-01-23T08:00:53.910Z,190.26
2017-01-23T08:01:53.898Z,191.71
2017-01-23T08:02:53.936Z,191.89
2017-01-23T08:03:53.914Z,193.38
2017-01-23T08:04:53.918Z,194.08
2017-01-23T08:05:53.901Z,193.87
2017-01-23T08:06:53.902Z,192.5
2017-01-23T08:07:53.908Z,191.01
2017-01-23T08:08:53.915Z,192.29
2017-01-23T08:09:53.900Z,193.72
2017-01-23T08:10:53.903Z,194.86
2017-01-23T08:11:54.031Z,197.45
2017-01-23T08:12:53.900Z,200.13
2017-01-23T08:13:53.907Z,201.95
2017-01-23T08:14:53.900Z,205.65
2017-01-23T08:15:53.923Z,207.51
2017-01-23T08:16:53.908Z,210.45
2017-01-23T08:17:53.906Z,212.09
2017-01-23T08:18:53.903Z,214.76
2017-01-23T08:19:53.912Z,216.48
2017-01-23T08:20:53.909Z,217.62
2017-01-23T08:21:53.912Z,218.13
2017-01-23T08:22:54.059Z,220.27
2017-01-23T08:23:53.911Z,221.44
2017-01-23T08:24:53.910Z,222.89
2017-01-23T08:25:53.913Z,224.13
2017-01-23T08:26:53.917Z,224.35
2017-01-23T08:27:53.907Z,225.1
2017-01-23T08:28:53.914Z,225.88
2017-01-23T08:29:53.917Z,224.67
2017-01-23T08:30:53.929Z,222.48
2017-01-23T08:31:53.912Z,223.98
2017-01-23T08:32:53.926Z,223.98
2017-01-23T08:33:53.912Z,224.98
2017-01-23T08:34:53.925Z,225.41
2017-01-23T08:35:53.916Z,226.21
2017-01-23T08:36:53.913Z,225.93
2017-01-23T08:37:53.918Z,225.26
2017-01-23T08:38:53.931Z,222.9
2017-01-23T08:39:53.913Z,223.83
2017-01-23T08:40:53.916Z,223.56
2017-01-23T08:41:53.913Z,224.31
2017-01-23T08:42:53.926Z,224.77
2017-01-23T08:43:53.917Z,226.24
2017-01-23T08:44:53.933Z,228.15
2017-01-23T08:45:53.926Z,231.02
2017-01-23T08:46:53.925Z,232.4
2017-01-23T08:47:53.928Z,234.12
2017-01-23T08:48:53.917Z,235.49
2017-01-23T08:49:53.927Z,236.47
2017-01-23T08:50:53.920Z,238.32
2017-01-23T08:51:53.927Z,241.62
2017-01-23T08:52:54.152Z,244.07
2017-01-23T08:53:53.938Z,245.94
2017-01-23T08:54:53.920Z,247.8
2017-01-23T08:55:53.929Z,248.27
2017-01-23T08:56:53.927Z,250.67
2017-01-23T08:57:53.953Z,252.36
2017-01-23T08:58:53.925Z,253.49
2017-01-23T08:59:53.939Z,254.13
2017-01-23T09:00:53.927Z,254.6
2017-01-23T09:01:53.930Z,254.39
2017-01-23T09:02:53.930Z,255.09
2017-01-23T09:03:53.929Z,256.24
2017-01-23T09:04:53.930Z,257.93
2017-01-23T09:05:53.933Z,258.39
2017-01-23T09:06:53.939Z,260.81
2017-01-23T09:07:53.934Z,262.6
2017-01-23T09:08:53.979Z,263.57
2017-01-23T09:09:53.944Z,264.54
2017-01-23T09:10:53.933Z,267.13
2017-01-23T09:11:53.934Z,268.99
2017-01-23T09:12:53.936Z,270.61
2017-01-23T09:13:53.935Z,272.71
2017-01-23T09:14:53.930Z,274.79
2017-01-23T09:15:53.939Z,275.5
2017-01-23T09:16:53.947Z,276.94
2017-01-23T09:17:53.946Z,277.39
2017-01-23T09:18:53.933Z,278.33
2017-01-23T09:19:53.946Z,278.85
2017-01-23T09:20:53.942Z,279.79
2017-01-23T09:21:53.936Z,281.47
2017-01-23T09:22:53.942Z,282.36
2017-01-23T09:23:53.958Z,283.99
2017-01-23T09:24:53.980Z,285.57
2017-01-23T09:25:53.939Z,288.78
2017-01-23T09:26:53.942Z,290.15
2017-01-23T09:27:53.972Z,292.23
2017-01-23T09:28:53.956Z,294.77
2017-01-23T09:29:53.958Z,296.66
2017-01-23T09:30:53.945Z,298.77
2017-01-23T09:31:53.955Z,301.31
2017-01-23T09:32:53.996Z,303.19
2017-01-23T09:33:53.949Z,304.63
2017-01-23T09:34:53.959Z,305.89
2017-01-23T09:35:53.944Z,305.64
2017-01-23T09:36:53.961Z,305.9
2017-01-23T09:37:53.950Z,307.3
2017-01-23T09:38:53.952Z,309.81
2017-01-23T09:39:53.957Z,311.85
2017-01-23T09:40:53.990Z,315.67
2017-01-23T09:41:53.960Z,319.39
2017-01-23T09:42:53.960Z,322.58
2017-01-23T09:43:53.963Z,327.29
2017-01-23T09:44:53.961Z,330.11
2017-01-23T09:45:53.956Z,334.19
2017-01-23T09:46:53.959Z,337.35
2017-01-23T09:47:53.961Z,338.69
2017-01-23T09:48:53.960Z,340.48
2017-01-23T09:49:53.956Z,341.39
2017-01-23T09:50:53.960Z,341.83
2017-01-23T09:51:53.958Z,343.12
2017-01-23T09:52:53.960Z,343.39
2017-01-23T09:53:53.978Z,342.03
2017-01-23T09:54:54.015Z,341.36
2017-01-23T09:55:53.965Z,341.83
2017-01-23T09:56:54.031Z,339.78
2017-01-23T09:57:53.961Z,336.81
2017-01-23T09:58:53.964Z,334
2017-01-23T09:59:53.959Z,330.54
2017-01-23T10:00:53.981Z,329.44
2017-01-23T10:01:53.964Z,328.75
2017-01-23T10:02:53.980Z,328.28
2017-01-23T10:03:53.976Z,328.5
2017-01-23T10:04:53.975Z,329.23
2017-01-23T10:05:53.979Z,330.99
2017-01-23T10:06:53.977Z,334.4
2017-01-23T10:07:53.977Z,337.33
2017-01-23T10:08:53.971Z,340.27
2017-01-23T10:09:53.974Z,342.41
2017-01-23T10:10:53.976Z,345.76
2017-01-23T10:11:53.973Z,349.57
2017-01-23T10:12:53.978Z,352.45
2017-01-23T10:13:53.977Z,355.14
2017-01-23T10:14:53.970Z,359.17
2017-01-23T10:22:19.274Z,360.94
2017-01-23T10:22:29.320Z,369.78
2017-01-23T10:23:29.309Z,372.88
2017-01-23T10:24:29.292Z,377.32
2017-01-23T10:25:29.301Z,380.75
2017-01-23T10:26:29.360Z,385.37
2017-01-23T10:27:29.336Z,390.03
2017-01-23T10:28:29.304Z,394.8
2017-01-23T10:29:29.306Z,397.2
2017-01-23T10:30:29.298Z,400.86
2017-01-23T10:31:29.309Z,403
2017-01-23T10:32:29.306Z,407.78
2017-01-23T10:33:29.320Z,410.56
2017-01-23T10:34:29.329Z,414.24
2017-01-23T10:35:29.295Z,416.82
2017-01-23T10:36:29.383Z,419.76
2017-01-23T10:37:29.340Z,422.98
2017-01-23T10:38:29.353Z,428.63
2017-01-23T10:39:29.309Z,435.14
2017-01-23T10:40:29.312Z,440.41
2017-01-23T10:41:29.304Z,443.61
2017-01-23T10:42:29.322Z,446.34
2017-01-23T10:43:29.302Z,451.02
2017-01-23T10:44:29.308Z,452.69
2017-01-23T10:45:29.313Z,454.14
2017-01-23T10:46:29.333Z,455.21
2017-01-23T10:47:29.315Z,458.5
2017-01-23T10:48:29.325Z,460.59
2017-01-23T10:49:29.315Z,463.95
2017-01-23T10:50:29.307Z,464.78
2017-01-23T10:51:29.308Z,464.37
2017-01-23T10:52:29.330Z,464.54
2017-01-23T10:53:29.313Z,465.41
2017-01-23T10:54:29.304Z,466.42
2017-01-23T10:55:29.308Z,469.17
2017-01-23T10:56:29.320Z,472.04
2017-01-23T10:57:29.319Z,474.04
2017-01-23T10:58:29.327Z,474.84
2017-01-23T10:59:29.320Z,475.1
2017-01-23T11:00:29.313Z,473.9
2017-01-23T11:01:29.322Z,473.29
2017-01-23T11:02:29.328Z,473.93
2017-01-23T11:03:29.334Z,474.5
2017-01-23T11:04:29.321Z,476.04
2017-01-23T11:05:29.331Z,478.28
2017-01-23T11:06:29.329Z,478.85
2017-01-23T11:07:29.323Z,480.32
2017-01-23T11:08:29.337Z,480.8
2017-01-23T11:09:29.330Z,482.28
2017-01-23T11:10:29.326Z,483.87
2017-01-23T11:11:29.319Z,484.38
2017-01-23T11:12:29.335Z,484.42
2017-01-23T11:13:29.331Z,483.94
2017-01-23T11:14:29.346Z,482.93
2017-01-23T11:15:29.336Z,482.38
2017-01-23T11:16:29.329Z,483.22
2017-01-23T11:17:29.326Z,483.39
2017-01-23T11:18:29.338Z,483.76
2017-01-23T11:19:29.333Z,484.77
2017-01-23T11:20:29.335Z,485.8
2017-01-23T11:21:29.336Z,486.82
2017-01-23T11:22:29.332Z,487.66
2017-01-23T11:23:29.325Z,485.98
2017-01-23T11:24:29.340Z,484.95
2017-01-23T11:25:29.346Z,484.61
2017-01-23T11:26:29.339Z,484.39
2017-01-23T11:27:29.348Z,484.64
2017-01-23T11:28:29.337Z,483.8
2017-01-23T11:29:29.336Z,483.18
2017-01-23T11:30:29.342Z,482.84
2017-01-23T11:31:29.333Z,483.01
2017-01-23T11:32:29.350Z,483.04
2017-01-23T11:33:29.340Z,482.35
2017-01-23T11:34:29.340Z,482.97
2017-01-23T11:35:29.338Z,483.61
2017-01-23T11:36:29.353Z,483.42
2017-01-23T11:37:29.347Z,481.3
2017-01-23T11:38:29.336Z,478.81
2017-01-23T11:39:29.352Z,476.74
2017-01-23T11:40:29.355Z,474.37
2017-01-23T11:41:29.341Z,474.37
2017-01-23T11:42:29.351Z,474
2017-01-23T11:43:29.349Z,473.52
2017-01-23T11:44:29.349Z,475.85
2017-01-23T11:45:29.343Z,476.28
2017-01-23T11:46:29.361Z,477.5
2017-01-23T11:47:29.352Z,477.89
2017-01-23T11:48:29.350Z,477.43
2017-01-23T11:49:29.355Z,476.64
2017-01-23T11:50:29.389Z,474.98
2017-01-23T11:51:29.359Z,474.73
2017-01-23T11:52:29.344Z,474.48
2017-01-23T11:53:29.354Z,475.56
2017-01-23T11:54:29.343Z,475.33
2017-01-23T11:55:29.357Z,476.97
2017-01-23T11:56:29.362Z,478.05
2017-01-23T11:57:29.355Z,477.79
2017-01-23T11:58:29.354Z,477.96
2017-01-23T11:59:29.361Z,477.56
2017-01-23T12:00:29.365Z,478.02
2017-01-23T12:01:29.358Z,478.69
2017-01-23T12:02:29.366Z,478.67
2017-01-23T12:03:29.361Z,478.63
2017-01-23T12:04:29.356Z,478.66
2017-01-23T12:05:29.365Z,478.24
2017-01-23T12:06:29.378Z,477.96
2017-01-23T12:07:29.357Z,479
2017-01-23T12:08:29.372Z,480.22
2017-01-23T12:09:29.369Z,479.58
2017-01-23T12:10:29.364Z,479.41
2017-01-23T12:11:29.368Z,480.07
2017-01-23T12:12:29.432Z,480.23
2017-01-23T12:13:29.373Z,480.19
2017-01-23T12:14:29.358Z,480.84
2017-01-23T12:15:29.365Z,482.09
2017-01-23T12:16:29.369Z,483.95
2017-01-23T12:17:29.371Z,486.19
2017-01-23T12:18:29.368Z,488.46
2017-01-23T12:19:29.364Z,489.06
2017-01-23T12:20:29.370Z,489.4
2017-01-23T12:21:29.372Z,490.42
2017-01-23T12:22:29.380Z,491.68
2017-01-23T12:23:29.394Z,491.02
2017-01-23T12:24:29.397Z,490.41
2017-01-23T12:25:29.403Z,487.1
2017-01-23T12:26:29.384Z,484.84
2017-01-23T12:27:29.382Z,483.79
2017-01-23T12:28:29.405Z,482.08
2017-01-23T12:29:29.432Z,485.17
2017-01-23T12:30:29.389Z,484.77
2017-01-23T12:31:29.390Z,483.93
2017-01-23T12:32:29.414Z,483.06
2017-01-23T12:33:29.372Z,483.67